Time;durP1;ratioP1;P1;durP2;ratioP2;P2;SDS_P1;SDS_P2;PMS_P1;PMS_P2;Temp;Humidity;BMP_temperature;BMP_pressure;BME280_temperature;BME280_humidity;BME280_pressure;Samples;Min_cycle;Max_cycle;Signal;HPM_P1;HPM_P2
2022/07/16 00:01:26;;;;;;;10.15;9.18;;;26.90;48.50;;;;;;4615526;57;21009;-31
2022/07/16 00:06:29;;;;;;;10.70;9.60;;;26.90;48.60;;;;;;4617109;56;21551;-31
2022/07/16 00:11:30;;;;;;;10.50;9.40;;;26.90;48.60;;;;;;4776581;56;21024;-30
2022/07/16 00:16:31;;;;;;;9.90;8.88;;;26.90;48.70;;;;;;5073243;56;21064;-30
2022/07/16 00:21:31;;;;;;;10.40;9.40;;;26.90;48.70;;;;;;4729018;56;21498;-30
2022/07/16 00:26:33;;;;;;;11.02;9.35;;;26.90;48.70;;;;;;4764455;56;21091;-31
2022/07/16 00:31:35;;;;;;;10.07;9.07;;;26.90;48.70;;;;;;4792059;56;21024;-30
2022/07/16 00:36:37;;;;;;;10.32;9.32;;;26.90;48.80;;;;;;4698320;56;21471;-29
2022/07/16 00:41:40;;;;;;;10.00;9.07;;;26.90;48.80;;;;;;5046402;56;21016;-30
2022/07/16 00:46:42;;;;;;;10.00;9.00;;;26.90;48.80;;;;;;4667086;56;21040;-30
2022/07/16 00:51:46;;;;;;;9.63;8.63;;;26.90;48.80;;;;;;4615081;60;21647;-31
2022/07/16 00:56:47;;;;;;;10.02;9.02;;;26.90;48.80;;;;;;4778607;56;21064;-32
2022/07/16 01:01:48;;;;;;;10.02;9.02;;;26.90;48.80;;;;;;4725113;56;21020;-33
2022/07/16 01:06:50;;;;;;;9.55;8.65;;;26.90;48.90;;;;;;4615125;57;21036;-34
2022/07/16 01:11:52;;;;;;;10.07;9.07;;;26.90;48.90;;;;;;4683602;56;21523;-35
2022/07/16 01:16:53;;;;;;;10.02;9.02;;;26.90;48.90;;;;;;4615498;56;21053;-34
2022/07/16 01:21:54;;;;;;;9.25;8.35;;;26.90;48.90;;;;;;4615171;60;21111;-33
2022/07/16 01:26:55;;;;;;;9.35;8.45;;;26.90;49.00;;;;;;4682862;56;21135;-34
2022/07/16 01:31:55;;;;;;;9.48;8.52;;;26.90;49.00;;;;;;4753444;56;21039;-33
2022/07/16 01:37:05;;;;;;;9.80;8.90;;;26.90;49.10;;;;;;4615234;60;21084;-29
2022/07/16 01:42:08;;;;;;;9.25;8.35;;;26.90;49.10;;;;;;5042310;56;21119;-29
2022/07/16 01:47:10;;;;;;;9.02;8.23;;;26.90;49.10;;;;;;4646810;56;21466;-28
2022/07/16 01:52:13;;;;;;;8.88;8.07;;;26.90;49.80;;;;;;4614972;60;21542;-32
2022/07/16 01:57:15;;;;;;;9.45;8.45;;;26.90;49.20;;;;;;4718683;56;20988;-35
2022/07/16 02:02:15;;;;;;;8.80;8.00;;;26.90;49.10;;;;;;4675396;56;21032;-33
2022/07/16 02:07:17;;;;;;;8.60;7.80;;;26.90;49.30;;;;;;4754128;56;21494;-33
2022/07/16 02:12:18;;;;;;;9.15;8.25;;;26.90;49.20;;;;;;4663197;56;21554;-32
2022/07/16 02:17:19;;;;;;;10.57;9.48;;;26.90;49.30;;;;;;4615596;60;21012;-35
2022/07/16 02:22:20;;;;;;;9.43;8.30;;;26.90;49.30;;;;;;4859481;56;21599;-33
2022/07/16 02:27:21;;;;;;;8.52;7.72;;;26.90;49.30;;;;;;4615177;60;21056;-30
2022/07/16 02:32:22;;;;;;;8.85;8.00;;;26.90;49.30;;;;;;4696340;56;21547;-28
2022/07/16 02:37:23;;;;;;;8.80;7.90;;;26.90;49.30;;;;;;4695383;56;21088;-28
2022/07/16 02:42:24;;;;;;;9.02;7.80;;;26.90;49.30;;;;;;4685786;56;21483;-29
2022/07/16 02:47:24;;;;;;;8.95;8.05;;;26.90;49.30;;;;;;4736587;56;20989;-34
2022/07/16 02:52:25;;;;;;;8.23;7.53;;;26.90;49.20;;;;;;4685096;56;21032;-26
2022/07/16 02:57:26;;;;;;;8.13;7.43;;;26.90;49.20;;;;;;4683088;56;21001;-30
2022/07/16 03:02:27;;;;;;;7.75;7.00;;;26.90;49.10;;;;;;4711393;56;21486;-29
2022/07/16 03:07:28;;;;;;;8.18;7.37;;;26.90;49.10;;;;;;4802041;56;20993;-35
2022/07/16 03:12:28;;;;;;;8.93;7.28;;;26.90;49.10;;;;;;4815278;56;21032;-31
2022/07/16 03:17:30;;;;;;;7.50;6.80;;;26.90;49.00;;;;;;4707640;56;21057;-29
2022/07/16 03:22:31;;;;;;;7.47;6.78;;;26.90;48.90;;;;;;4615206;60;21036;-30
2022/07/16 03:27:32;;;;;;;7.70;6.90;;;26.90;48.90;;;;;;4706057;56;21072;-28
2022/07/16 03:32:33;;;;;;;7.22;6.62;;;26.90;48.80;;;;;;4660915;56;21028;-29
2022/07/16 03:38:57;;;;;;;7.68;6.97;;;26.80;48.80;;;;;;4762694;56;21076;-29
2022/07/16 03:44:07;;;;;;;7.05;6.35;;;26.90;48.90;;;;;;4943860;56;21507;-34
2022/07/16 03:49:08;;;;;;;7.22;6.53;;;26.90;48.70;;;;;;4677451;56;21084;-29
2022/07/16 03:54:09;;;;;;;7.20;6.53;;;26.90;48.70;;;;;;4709067;56;21111;-34
2022/07/16 03:59:13;;;;;;;7.18;6.47;;;26.80;48.70;;;;;;4672841;56;21502;-29
2022/07/16 04:04:14;;;;;;;7.50;6.15;;;26.80;48.70;;;;;;4844652;56;21104;-29
2022/07/16 04:09:15;;;;;;;7.32;6.50;;;26.90;48.70;;;;;;4615322;60;21124;-32
2022/07/16 04:14:15;;;;;;;7.20;6.37;;;26.80;48.80;;;;;;4615617;57;21023;-33
2022/07/16 04:19:16;;;;;;;7.43;6.72;;;26.80;48.60;;;;;;4654078;56;21028;-29
2022/07/16 04:24:17;;;;;;;7.07;6.37;;;26.80;48.80;;;;;;4941369;56;21001;-29
2022/07/16 04:29:18;;;;;;;6.62;5.70;;;26.80;48.50;;;;;;4893292;56;21031;-29
2022/07/16 04:34:18;;;;;;;6.80;6.10;;;26.80;48.50;;;;;;4615449;60;21073;-30
2022/07/16 04:39:19;;;;;;;7.05;6.35;;;26.80;48.60;;;;;;4809523;56;21142;-30
2022/07/16 04:44:20;;;;;;;6.62;5.85;;;26.80;48.50;;;;;;4706171;56;21024;-29
2022/07/16 04:49:21;;;;;;;6.45;5.78;;;26.80;48.40;;;;;;4625669;56;21048;-27
2022/07/16 04:54:22;;;;;;;7.35;6.65;;;26.80;48.40;;;;;;4615700;56;21013;-29
2022/07/16 04:59:22;;;;;;;7.95;6.10;;;26.80;48.40;;;;;;4615267;60;21498;-32
2022/07/16 05:04:23;;;;;;;7.03;6.00;;;26.80;48.40;;;;;;4793370;56;21040;-27
2022/07/16 05:09:24;;;;;;;6.62;6.00;;;26.80;48.40;;;;;;4898693;56;21032;-30
2022/07/16 05:14:25;;;;;;;6.78;6.00;;;26.80;48.30;;;;;;4714012;56;21012;-29
2022/07/16 05:19:26;;;;;;;7.32;6.60;;;26.80;48.30;;;;;;4615217;60;21497;-29
2022/07/16 05:24:27;;;;;;;8.27;6.60;;;26.80;48.30;;;;;;4614612;60;21491;-29
2022/07/16 05:29:28;;;;;;;9.02;6.20;;;26.80;48.30;;;;;;4651920;56;21040;-29
2022/07/16 05:34:29;;;;;;;6.75;6.00;;;26.70;48.10;;;;;;4615583;57;21008;-30
2022/07/16 05:39:30;;;;;;;6.70;6.00;;;26.70;48.10;;;;;;4649423;56;21096;-31
2022/07/16 05:44:30;;;;;;;7.10;6.40;;;26.70;48.20;;;;;;4812390;56;21502;-29
2022/07/16 05:49:31;;;;;;;9.23;5.97;;;26.70;48.20;;;;;;5055549;56;21072;-29
2022/07/16 05:54:32;;;;;;;6.62;5.85;;;26.70;48.10;;;;;;4614989;60;21067;-31
2022/07/16 05:59:33;;;;;;;7.60;5.93;;;26.80;48.20;;;;;;4716884;56;21164;-30
2022/07/16 06:04:34;;;;;;;6.60;5.90;;;26.80;48.10;;;;;;4615205;60;21019;-29
2022/07/16 06:09:35;;;;;;;10.38;6.43;;;26.70;48.10;;;;;;4674140;56;21035;-30
2022/07/16 06:14:36;;;;;;;8.05;6.28;;;26.80;48.10;;;;;;4653401;56;21578;-28
2022/07/16 06:19:41;;;;;;;7.22;6.43;;;26.70;48.30;;;;;;4787409;56;21076;-30
2022/07/16 06:24:42;;;;;;;7.25;6.03;;;26.70;48.00;;;;;;4614347;60;21599;-30
2022/07/16 06:29:43;;;;;;;8.30;6.53;;;26.70;48.00;;;;;;4686601;56;21021;-29
2022/07/16 06:34:43;;;;;;;7.68;6.65;;;26.70;48.00;;;;;;4640191;56;21482;-30
2022/07/16 06:39:44;;;;;;;9.18;6.90;;;26.70;47.90;;;;;;4650373;56;21517;-30
2022/07/16 06:44:45;;;;;;;7.47;6.55;;;26.70;48.50;;;;;;4781351;56;21005;-30
2022/07/16 06:49:46;;;;;;;10.25;6.62;;;26.80;47.90;;;;;;4789144;56;21089;-34
2022/07/16 06:54:47;;;;;;;10.07;6.25;;;26.70;48.00;;;;;;4615661;60;21009;-30
2022/07/16 06:59:48;;;;;;;7.75;6.50;;;26.70;47.80;;;;;;4650774;56;21020;-29
2022/07/16 07:04:48;;;;;;;8.75;6.53;;;26.70;47.80;;;;;;4760819;56;21024;-28
2022/07/16 07:09:49;;;;;;;7.85;6.22;;;26.80;47.90;;;;;;4615164;60;21038;-31
2022/07/16 07:14:50;;;;;;;9.05;6.97;;;26.80;47.90;;;;;;4630087;56;21152;-30
2022/07/16 07:19:51;;;;;;;7.40;6.35;;;26.80;47.80;;;;;;4752065;56;21626;-29
2022/07/16 07:24:52;;;;;;;9.60;6.43;;;26.70;47.70;;;;;;4790672;56;21040;-30
2022/07/16 07:29:52;;;;;;;9.38;7.15;;;26.70;47.70;;;;;;4622160;56;21030;-29
2022/07/16 07:34:53;;;;;;;9.07;6.62;;;26.70;47.70;;;;;;4702895;56;21471;-32
2022/07/16 07:39:54;;;;;;;13.18;7.22;;;26.70;47.70;;;;;;4944236;56;21055;-30
2022/07/16 07:44:55;;;;;;;9.07;6.90;;;26.70;47.70;;;;;;4653388;56;21020;-28
2022/07/16 07:49:56;;;;;;;8.93;6.93;;;26.70;47.70;;;;;;4615358;60;21530;-28
2022/07/16 07:54:57;;;;;;;10.85;7.65;;;26.80;47.80;;;;;;4634752;56;21020;-29
2022/07/16 07:59:58;;;;;;;10.73;7.05;;;26.70;47.60;;;;;;4730199;56;21037;-29
2022/07/16 08:04:58;;;;;;;12.07;7.93;;;26.70;47.60;;;;;;4615223;60;21021;-29
2022/07/16 08:09:59;;;;;;;12.27;7.15;;;26.70;47.60;;;;;;4676783;56;21315;-30
2022/07/16 08:15:00;;;;;;;10.13;7.53;;;26.70;47.60;;;;;;4680516;56;21039;-28
2022/07/16 08:20:03;;;;;;;13.20;8.52;;;26.70;47.50;;;;;;4802161;56;21138;-30
2022/07/16 08:30:24;;;;;;;9.80;6.93;;;26.70;47.50;;;;;;4614625;56;21056;-29
2022/07/16 08:35:25;;;;;;;12.05;8.10;;;26.80;47.60;;;;;;4636346;56;21064;-30
2022/07/16 08:40:26;;;;;;;12.32;8.43;;;26.80;47.60;;;;;;4615506;60;21089;-29
2022/07/16 08:45:28;;;;;;;13.77;8.60;;;26.80;47.50;;;;;;4649679;56;21463;-30
2022/07/16 08:50:29;;;;;;;11.93;8.50;;;26.80;47.60;;;;;;4614836;60;21144;-30
2022/07/16 08:55:30;;;;;;;12.95;8.30;;;26.80;47.60;;;;;;4706713;56;21072;-31
2022/07/16 09:00:31;;;;;;;13.85;8.57;;;26.80;47.60;;;;;;4644026;56;21021;-30
2022/07/16 09:05:32;;;;;;;13.48;8.25;;;26.80;47.60;;;;;;4615040;60;21093;-29
2022/07/16 09:10:37;;;;;;;12.27;8.57;;;26.80;47.60;;;;;;4614983;56;21016;-29
2022/07/16 09:15:40;;;;;;;12.70;8.60;;;26.80;47.60;;;;;;4615111;60;20996;-29
2022/07/16 09:20:50;;;;;;;11.77;7.95;;;26.80;47.60;;;;;;4659323;56;21138;-29
2022/07/16 09:25:53;;;;;;;13.62;9.05;;;26.80;47.60;;;;;;4614063;60;21056;-29
2022/07/16 09:30:54;;;;;;;11.18;7.78;;;26.80;47.60;;;;;;4614999;60;21040;-32
2022/07/16 09:36:10;;;;;;;11.23;8.40;;;26.80;47.60;;;;;;4696070;56;21096;-31
2022/07/16 09:41:13;;;;;;;12.77;8.52;;;26.80;47.70;;;;;;4615477;60;21463;-29
2022/07/16 09:46:20;;;;;;;10.10;8.00;;;26.80;47.70;;;;;;4711821;56;21551;-30
2022/07/16 09:51:27;;;;;;;11.38;8.18;;;26.80;47.70;;;;;;4793322;56;21073;-31
2022/07/16 09:56:28;;;;;;;13.55;8.95;;;26.80;47.60;;;;;;4615394;60;21555;-29
2022/07/16 10:01:29;;;;;;;10.82;8.13;;;26.80;47.60;;;;;;4614854;58;21184;-28
2022/07/16 10:06:30;;;;;;;10.02;8.02;;;26.80;47.70;;;;;;4615645;58;21112;-29
2022/07/16 10:11:31;;;;;;;10.13;7.57;;;26.80;47.60;;;;;;4713503;56;21498;-29
2022/07/16 10:16:43;;;;;;;11.25;8.25;;;26.80;47.50;;;;;;4615323;60;21080;-30
2022/07/16 10:28:52;;;;;;;9.52;7.93;;;26.80;47.70;;;;;;4929342;56;21574;-31
2022/07/16 10:34:53;;;;;;;13.00;8.73;;;26.90;47.70;;;;;;4655096;56;21523;-28
2022/07/16 10:40:01;;;;;;;10.75;7.78;;;26.90;47.70;;;;;;4643212;56;21025;-30
2022/07/16 10:45:03;;;;;;;11.48;7.87;;;26.80;47.70;;;;;;4671314;56;21527;-29
2022/07/16 10:50:22;;;;;;;12.10;8.10;;;26.80;47.70;;;;;;4684681;56;21597;-33
2022/07/16 10:55:35;;;;;;;8.52;7.57;;;26.80;47.70;;;;;;4692433;56;21104;-33
2022/07/16 11:00:36;;;;;;;10.13;8.10;;;26.80;47.70;;;;;;4781608;56;21114;-32
2022/07/16 11:05:37;;;;;;;11.23;7.80;;;26.80;47.70;;;;;;4711272;56;21013;-27
2022/07/16 11:10:40;;;;;;;9.57;8.00;;;26.90;47.70;;;;;;4923162;56;21542;-30
2022/07/16 11:15:41;;;;;;;10.40;7.47;;;26.80;47.70;;;;;;4621187;56;21570;-29
2022/07/16 11:20:42;;;;;;;9.07;7.82;;;26.90;47.70;;;;;;4615424;60;21004;-31
2022/07/16 11:25:54;;;;;;;10.30;8.15;;;26.80;47.70;;;;;;4746756;56;21522;-31
2022/07/16 11:31:08;;;;;;;8.50;7.60;;;26.80;47.70;;;;;;4729279;56;21088;-34
2022/07/16 11:36:13;;;;;;;11.45;8.00;;;26.80;47.60;;;;;;4617518;56;21499;-29
2022/07/16 11:41:15;;;;;;;9.73;8.38;;;26.90;47.70;;;;;;4654528;56;21610;-30
2022/07/16 11:46:28;;;;;;;8.82;7.50;;;26.90;47.70;;;;;;4663720;56;21071;-31
2022/07/16 11:51:29;;;;;;;8.82;7.93;;;26.90;47.70;;;;;;4615072;60;21518;-30
2022/07/16 11:56:40;;;;;;;9.63;8.60;;;26.90;47.70;;;;;;4642450;56;21539;-29
2022/07/16 12:01:41;;;;;;;10.48;8.07;;;26.90;47.60;;;;;;4622522;56;21156;-29
2022/07/16 12:06:47;;;;;;;9.55;8.00;;;26.90;47.60;;;;;;4615278;60;21084;-30
2022/07/16 12:11:59;;;;;;;8.43;7.50;;;26.90;47.60;;;;;;4626864;56;21561;-30
2022/07/16 12:17:00;;;;;;;9.23;8.13;;;26.90;47.60;;;;;;4615406;60;21024;-30
2022/07/16 12:22:01;;;;;;;9.27;7.50;;;26.90;47.60;;;;;;4615081;56;21092;-29
2022/07/16 12:27:01;;;;;;;8.98;8.02;;;26.90;47.60;;;;;;4622911;56;21482;-32
2022/07/16 12:32:04;;;;;;;8.57;7.68;;;26.90;47.70;;;;;;4827592;56;21028;-29
2022/07/16 12:37:14;;;;;;;8.15;7.35;;;26.90;47.60;;;;;;5073183;56;21487;-28
2022/07/16 12:42:15;;;;;;;9.80;8.18;;;26.90;47.60;;;;;;4615194;60;21426;-28
2022/07/16 12:47:16;;;;;;;9.30;7.75;;;26.90;47.60;;;;;;4677581;56;21012;-26
2022/07/16 12:52:17;;;;;;;9.00;7.93;;;26.90;47.60;;;;;;4648726;56;21547;-32
2022/07/16 13:02:37;;;;;;;9.25;7.78;;;26.90;47.60;;;;;;4615132;56;21570;-29
2022/07/16 13:07:38;;;;;;;9.23;7.68;;;26.90;47.60;;;;;;4799384;56;21011;-29
2022/07/16 13:12:38;;;;;;;8.70;7.80;;;26.90;47.60;;;;;;4635288;56;21024;-33
2022/07/16 13:17:39;;;;;;;9.05;7.85;;;26.90;47.50;;;;;;4707190;56;21040;-32
2022/07/16 13:22:40;;;;;;;10.15;8.38;;;26.90;47.50;;;;;;4643398;56;21514;-32
2022/07/16 13:27:41;;;;;;;8.93;7.82;;;26.90;47.50;;;;;;4748777;56;21494;-30
2022/07/16 13:32:42;;;;;;;9.80;8.27;;;26.90;47.50;;;;;;4676978;56;21104;-33
2022/07/16 13:37:42;;;;;;;9.43;8.48;;;26.90;47.50;;;;;;4676707;56;21017;-30
2022/07/16 13:42:43;;;;;;;10.00;8.70;;;26.90;47.50;;;;;;4615206;60;21021;-35
2022/07/16 13:47:45;;;;;;;9.55;8.02;;;27.00;47.60;;;;;;4660439;56;21032;-31
2022/07/16 13:52:46;;;;;;;9.07;8.15;;;26.90;47.50;;;;;;4635796;56;21529;-28
2022/07/16 14:03:06;;;;;;;9.52;8.30;;;26.90;47.60;;;;;;4614878;56;21040;-29
2022/07/16 14:08:07;;;;;;;9.38;8.25;;;27.00;47.60;;;;;;4617163;56;21104;-29
2022/07/16 14:13:08;;;;;;;8.80;7.70;;;27.00;47.70;;;;;;4615673;56;21032;-29
2022/07/16 14:18:09;;;;;;;9.35;7.93;;;27.00;47.70;;;;;;4654639;56;21027;-30
2022/07/16 14:23:11;;;;;;;9.13;8.00;;;27.00;47.70;;;;;;4742144;56;21033;-29
2022/07/16 14:28:12;;;;;;;9.00;7.85;;;27.00;47.70;;;;;;4614985;60;21088;-31
2022/07/16 14:33:13;;;;;;;9.15;8.25;;;27.00;47.70;;;;;;4614133;60;21025;-30
2022/07/16 14:38:14;;;;;;;9.57;8.57;;;27.00;47.70;;;;;;4867502;56;21093;-29
2022/07/16 14:43:15;;;;;;;9.15;8.02;;;27.00;47.70;;;;;;4614945;60;21479;-29
2022/07/16 14:48:16;;;;;;;10.02;8.10;;;27.00;47.80;;;;;;4782835;56;21024;-30
2022/07/16 14:53:17;;;;;;;8.70;7.82;;;27.00;47.70;;;;;;4614722;60;21048;-29
2022/07/16 14:58:18;;;;;;;9.25;8.35;;;27.00;47.70;;;;;;4721368;56;21036;-30
2022/07/16 15:03:19;;;;;;;8.55;7.60;;;27.00;47.70;;;;;;4917385;56;21076;-26
2022/07/16 15:08:19;;;;;;;9.27;7.97;;;27.00;47.70;;;;;;4831735;56;21057;-28
2022/07/16 15:13:20;;;;;;;8.75;7.95;;;27.00;47.70;;;;;;4620224;56;21032;-31
2022/07/16 15:18:22;;;;;;;8.23;7.43;;;27.00;47.80;;;;;;4659064;56;21601;-28
2022/07/16 15:23:23;;;;;;;9.70;8.60;;;27.00;47.80;;;;;;4780249;56;21513;-28
2022/07/16 15:28:24;;;;;;;9.55;8.30;;;27.00;47.90;;;;;;4902372;56;21009;-28
2022/07/16 15:33:37;;;;;;;9.23;8.32;;;27.00;47.80;;;;;;4731989;56;21519;-32
2022/07/16 15:38:37;;;;;;;8.50;7.60;;;27.00;47.90;;;;;;4711545;56;21183;-30
2022/07/16 15:43:38;;;;;;;8.40;7.55;;;27.00;47.90;;;;;;4667165;56;21087;-29
2022/07/16 15:48:40;;;;;;;10.27;8.05;;;27.00;47.80;;;;;;4620937;56;21012;-31
2022/07/16 15:53:40;;;;;;;9.40;8.27;;;27.00;47.90;;;;;;4909184;56;21033;-31
2022/07/16 15:58:41;;;;;;;9.45;7.78;;;27.00;47.80;;;;;;4615812;56;21097;-29
2022/07/16 16:03:42;;;;;;;9.18;8.02;;;27.00;47.90;;;;;;4641494;56;21055;-31
2022/07/16 16:08:43;;;;;;;8.85;7.75;;;27.00;47.80;;;;;;4817412;56;20996;-32
2022/07/16 16:13:44;;;;;;;9.30;8.07;;;27.00;47.90;;;;;;4745253;56;21040;-30
2022/07/16 16:18:45;;;;;;;9.50;8.50;;;27.00;47.90;;;;;;4683543;56;21056;-30
2022/07/16 16:23:46;;;;;;;8.50;7.60;;;27.00;47.90;;;;;;4614682;60;21502;-30
2022/07/16 16:28:47;;;;;;;9.48;8.48;;;27.10;47.90;;;;;;4764310;56;21016;-30
2022/07/16 16:33:48;;;;;;;9.45;8.45;;;27.10;48.00;;;;;;4614552;56;21479;-28
2022/07/16 16:38:48;;;;;;;9.02;7.85;;;27.10;48.00;;;;;;4615002;60;21077;-29
2022/07/16 16:43:49;;;;;;;9.60;8.50;;;27.00;48.00;;;;;;4737334;56;21041;-34
2022/07/16 16:48:50;;;;;;;8.95;8.05;;;27.00;48.00;;;;;;4748472;56;21042;-34
2022/07/16 16:53:51;;;;;;;9.90;8.30;;;27.10;48.00;;;;;;4657804;56;21511;-32
2022/07/16 16:58:52;;;;;;;8.60;7.70;;;27.10;48.00;;;;;;4779629;56;21056;-28
2022/07/16 17:03:53;;;;;;;9.82;8.55;;;27.10;48.00;;;;;;4777802;56;21053;-29
2022/07/16 17:08:55;;;;;;;9.60;8.55;;;27.10;48.00;;;;;;4885931;56;21171;-29
2022/07/16 17:13:56;;;;;;;8.43;7.62;;;27.10;48.00;;;;;;4635122;56;21574;-29
2022/07/16 17:18:57;;;;;;;10.25;8.85;;;27.10;48.10;;;;;;4634516;56;21017;-29
2022/07/16 17:23:58;;;;;;;8.35;7.53;;;27.10;48.10;;;;;;4830456;56;21053;-29
2022/07/16 17:28:59;;;;;;;8.52;7.72;;;27.10;48.10;;;;;;4726820;56;21019;-31
2022/07/16 17:33:59;;;;;;;9.00;8.10;;;27.10;48.10;;;;;;4653616;56;21510;-30
2022/07/16 17:39:01;;;;;;;10.73;7.75;;;27.10;48.10;;;;;;4615029;60;21000;-29
2022/07/16 17:44:02;;;;;;;9.57;8.10;;;27.10;48.10;;;;;;4702727;56;21499;-29
2022/07/16 17:54:22;;;;;;;8.75;7.85;;;27.10;48.10;;;;;;4613970;56;21104;-31
2022/07/16 17:59:23;;;;;;;9.07;8.18;;;27.10;48.10;;;;;;4680490;56;21502;-30
2022/07/16 18:04:24;;;;;;;9.15;7.50;;;27.10;48.20;;;;;;4615344;56;21076;-29
2022/07/16 18:09:25;;;;;;;8.52;7.68;;;27.10;48.20;;;;;;4614738;60;21071;-30
2022/07/16 18:14:27;;;;;;;8.60;7.78;;;27.10;48.20;;;;;;4615002;60;21017;-31
2022/07/16 18:19:29;;;;;;;8.68;7.87;;;27.10;48.20;;;;;;4667730;56;21577;-29
2022/07/16 18:24:30;;;;;;;8.10;7.30;;;27.10;48.30;;;;;;4736030;56;21056;-28
2022/07/16 18:29:30;;;;;;;8.70;7.80;;;27.10;48.30;;;;;;4620527;56;21118;-28
2022/07/16 18:34:31;;;;;;;8.43;7.62;;;27.10;48.30;;;;;;4678053;56;21032;-29
2022/07/16 18:39:32;;;;;;;8.57;7.75;;;27.10;48.30;;;;;;4697538;56;21481;-29
2022/07/16 18:44:33;;;;;;;8.65;7.72;;;27.10;48.30;;;;;;4653265;56;21024;-33
2022/07/16 18:49:35;;;;;;;7.72;6.93;;;27.10;48.30;;;;;;4774653;56;21036;-31
2022/07/16 18:54:36;;;;;;;8.20;7.43;;;27.10;48.30;;;;;;4637805;56;21591;-30
2022/07/16 18:59:38;;;;;;;8.32;7.47;;;27.10;48.40;;;;;;4665170;56;21064;-31
2022/07/16 19:04:40;;;;;;;8.23;7.37;;;27.10;48.30;;;;;;4615246;60;21007;-31
2022/07/16 19:09:40;;;;;;;8.52;7.60;;;27.10;48.30;;;;;;4760947;56;21503;-29
2022/07/16 19:14:41;;;;;;;8.68;7.62;;;27.10;48.40;;;;;;4656853;56;21073;-29
2022/07/16 19:19:42;;;;;;;7.87;7.07;;;27.10;48.30;;;;;;4615385;60;21129;-28
2022/07/16 19:24:43;;;;;;;8.27;7.47;;;27.10;48.40;;;;;;4852736;56;21104;-30
2022/07/16 19:29:44;;;;;;;8.57;7.78;;;27.10;48.40;;;;;;4668519;56;21019;-31
2022/07/16 19:34:45;;;;;;;8.48;7.68;;;27.10;48.40;;;;;;4615226;60;21498;-32
2022/07/16 19:39:46;;;;;;;8.02;7.22;;;27.10;48.40;;;;;;4636423;56;21007;-33
2022/07/16 19:44:47;;;;;;;8.52;7.55;;;27.10;48.40;;;;;;4615323;60;21032;-27
2022/07/16 19:49:50;;;;;;;8.10;7.30;;;27.10;48.40;;;;;;4693341;56;21085;-33
2022/07/16 19:58:00;;;;;;;8.55;7.53;;;27.10;48.40;;;;;;4674636;56;21490;-32
2022/07/16 20:03:02;;;;;;;8.05;7.25;;;27.10;48.50;;;;;;4643117;56;21558;-31
2022/07/16 20:08:04;;;;;;;8.45;7.50;;;27.10;48.40;;;;;;4644277;56;21474;-31
2022/07/16 20:13:06;;;;;;;9.23;8.20;;;27.10;48.40;;;;;;4614747;60;21142;-33
2022/07/16 20:18:06;;;;;;;9.00;7.95;;;27.10;48.50;;;;;;4672157;56;21494;-32
2022/07/16 20:23:07;;;;;;;8.40;7.60;;;27.10;48.60;;;;;;4614769;60;21084;-32
2022/07/16 20:28:08;;;;;;;8.27;7.47;;;27.10;48.60;;;;;;4720497;56;21013;-30
2022/07/16 20:33:09;;;;;;;8.23;7.43;;;27.10;48.60;;;;;;4936496;56;21009;-30
2022/07/16 20:38:10;;;;;;;8.50;7.60;;;27.20;48.80;;;;;;4660318;56;21016;-31
2022/07/16 20:43:11;;;;;;;8.05;7.22;;;27.10;48.90;;;;;;4623269;56;21013;-30
2022/07/16 20:48:12;;;;;;;9.40;7.85;;;27.10;48.80;;;;;;4615217;56;21012;-28
2022/07/16 20:53:12;;;;;;;8.68;7.32;;;27.20;49.10;;;;;;4614365;60;21077;-28
2022/07/16 20:58:13;;;;;;;8.10;7.30;;;27.10;48.70;;;;;;4857004;56;20996;-30
2022/07/16 21:03:15;;;;;;;8.15;7.30;;;27.10;48.70;;;;;;4615406;60;21539;-29
2022/07/16 21:08:23;;;;;;;8.63;7.70;;;27.10;48.80;;;;;;4636016;56;21076;-30
2022/07/16 21:13:25;;;;;;;8.68;7.87;;;27.10;48.80;;;;;;5066578;56;21514;-29
2022/07/16 21:18:25;;;;;;;8.35;7.55;;;27.10;48.80;;;;;;4625528;56;21076;-31
2022/07/16 21:23:26;;;;;;;8.27;7.47;;;27.10;48.80;;;;;;4615188;57;21092;-29
2022/07/16 21:28:27;;;;;;;8.20;7.43;;;27.20;48.90;;;;;;4615319;60;21032;-30
2022/07/16 21:33:28;;;;;;;8.00;7.20;;;27.10;48.90;;;;;;5073020;56;21036;-30
2022/07/16 21:38:29;;;;;;;7.85;7.12;;;27.10;49.00;;;;;;4615613;60;21020;-30
2022/07/16 21:43:29;;;;;;;7.95;7.10;;;27.10;49.00;;;;;;4721882;56;21075;-31
2022/07/16 21:48:30;;;;;;;8.05;7.28;;;27.10;49.00;;;;;;4750213;56;21091;-31
2022/07/16 21:53:31;;;;;;;8.07;6.57;;;27.10;49.10;;;;;;4647277;56;21529;-34
2022/07/16 21:58:32;;;;;;;7.53;6.82;;;27.10;49.10;;;;;;4614963;60;21501;-35
2022/07/16 22:03:33;;;;;;;7.80;7.05;;;27.10;49.20;;;;;;4763220;56;21104;-31
2022/07/16 22:08:33;;;;;;;7.55;6.85;;;27.10;48.90;;;;;;4615845;60;21061;-32
2022/07/16 22:13:36;;;;;;;8.18;7.35;;;27.10;49.20;;;;;;4667985;56;21108;-30
2022/07/16 22:23:56;;;;;;;7.72;6.90;;;27.10;49.30;;;;;;4614771;56;21064;-29
2022/07/16 22:28:57;;;;;;;7.35;6.62;;;27.10;49.30;;;;;;4806636;56;21486;-29
2022/07/16 22:33:58;;;;;;;7.22;6.53;;;27.10;49.30;;;;;;4632628;56;21101;-30
2022/07/16 22:38:58;;;;;;;8.27;7.32;;;27.10;49.30;;;;;;4784556;56;21052;-32
2022/07/16 22:43:59;;;;;;;7.28;6.57;;;27.10;49.30;;;;;;4841524;56;21044;-33
2022/07/16 22:49:00;;;;;;;7.87;7.12;;;27.20;49.50;;;;;;4615792;60;21080;-30
2022/07/16 22:54:01;;;;;;;7.50;6.80;;;27.20;49.50;;;;;;4625878;56;21080;-32
2022/07/16 22:59:02;;;;;;;7.60;6.87;;;27.10;49.40;;;;;;4914311;56;21498;-32
2022/07/16 23:04:04;;;;;;;7.35;6.65;;;27.10;49.40;;;;;;4719322;56;21020;-30
2022/07/16 23:09:05;;;;;;;7.70;6.53;;;27.10;49.50;;;;;;4699261;56;21021;-28
2022/07/16 23:14:05;;;;;;;7.55;6.75;;;27.20;49.60;;;;;;4758377;56;21100;-29
2022/07/16 23:19:08;;;;;;;7.07;6.37;;;27.10;49.50;;;;;;4942576;56;21008;-30
2022/07/16 23:24:09;;;;;;;7.35;6.65;;;27.20;49.60;;;;;;4621500;56;21565;-30
2022/07/16 23:29:10;;;;;;;6.85;6.25;;;27.20;49.60;;;;;;4615935;56;21125;-30
2022/07/16 23:34:11;;;;;;;7.78;6.82;;;27.10;49.70;;;;;;4639360;56;21096;-29
2022/07/16 23:39:12;;;;;;;7.60;6.90;;;27.20;49.70;;;;;;4637673;56;21013;-30
2022/07/16 23:44:12;;;;;;;7.45;6.75;;;27.20;49.70;;;;;;4702025;56;21036;-29
2022/07/16 23:49:13;;;;;;;7.37;6.68;;;27.20;49.80;;;;;;4691597;56;21487;-30
2022/07/16 23:54:14;;;;;;;6.82;6.22;;;27.10;49.80;;;;;;4790726;56;21522;-30
2022/07/16 23:59:15;;;;;;;7.05;6.32;;;27.10;49.80;;;;;;4618465;56;21510;-30
